Terminal Aerodrome Forecast
Issued by NWS Cleveland, OH

Home | Current Version | Previous Version | Graphics & Text | Print | Product List | Glossary On
Versions: 1 2 3 4 5 6 7 8 9 10 11 12 13 14 15 16 17 18 19 20 21 22 23 24 25 26 27 28 29 30
000
FTUS41 KCLE 241600 AAA
TAFTOL
TAF AMD
KTOL 241623Z 2416/2512 24006KT 5SM BR OVC015
     FM241730 26010KT P6SM OVC015
     FM250200 26006KT P6SM OVC025
     FM251000 02004KT 3SM -SN BR OVC015=

USA.gov is the U.S. government's official web portal to all federal, state and local government web resources and services.